Kezdőlap
METAR-TAF:

METAR-TAF

Repülőterek :

Los Ángeles, Chile

földrajzi szélesség: 37-24-07S, földrajzi hosszúság: 072-25-32W, magasság: 114 m

Jelenlegi meteorológiai megfigyelések

A jelentés 4 órával és 59 perccel ezelõtt készült, 22:00 UTC
Különbözõ irányokból fújó szél 2 kt
Hőmérséklet 12°C
Páratartalom 88%
Légköri nyomás 1017 hPa
Látótávolság: 8000 m
Borult 2000 lábon

METAR: SCGE 232200Z VRB02KT 8000 OVC020 12/10 Q1017

Idő: 23:59 (02:59 UTC)


TAF: hiányzik

Meteorológiai megfigyelések és előrejelzések több, mint 4000 repülőtéren (METAR és TAF jelentéseket).

A térképen piros és sárga pontok jelzik az elérhető meteorológiai állomásokat.

Mozgassa az egeret a pont fölött, hogy megjelenjen az állomás neve.

Azután kattintson az időjárási megfigyelések és előrejelzések megtekintéséhez.

A térkép megváltoztatása: kattintson a fekete keresztel jelölt zöld gombra ráközelítéshez, a vonallal jelölt zöld gombra távolításhoz, vagy a zöld nyilakra a szomszédos térképek eléréséhez.


METAR-TAF: